Chronik & Geschichte

Boeing Stearman am Flugplatz Konstanz

Mit seiner 107-jährigen Geschichte ist Konstanz der älteste Verkehrslandeplatz Deutschlands. Lesen Sie unsere Festschrift zum 100-jährigen Platzjubiläum oder entdecken Sie die ausführliche Flugplatzchronik auf der Website der Initiative PRO Flugplatz Konstanz.

Live am Platz

Die Bilder unserer Webcams werden alle 5 Minuten aktualisiert.

Sonnenaufgang:

03:43 UTC / 05:43 Lokal

Sonnenuntergang:

18:56 UTC / 20:56 Lokal

METAR (15.05.2021 05:20 UTC):

EDNY 150520Z AUTO VRB02KT 9999 // FEW210/// 07/06 Q1011
VFR

TAF (14.05.2021 23:00 UTC):

TAF EDNY 142300Z 1500/1524 24005KT 9999 SCT040 TEMPO 1500/1507 VRB03KT TEMPO 1508/1513 27015KT SCT025TCU TEMPO 1518/1524 RA PROB30 TEMPO 1519/1523 BKN010

Alle Angaben unverbindlich und ohne Gewähr. Zeiten genähert.

Für den Verkehrslandeplatz Konstanz werden keine offiziellen Wetterinformationen ausgegeben. Daher werden zur Orientierung Daten des nahegelegenen Flughafens Friedrichshafen dargestellt.

Das Landeentgelt kann bei uns auch mit aerops bezahlt werden. Die App für's Handy ist kostenfrei erhältlich.